Ann Arbor, Michigan
Current Conditions -  °F | °C
As of 9:53 PM on Tuesday 21 Oct 2014 (Local Time) from KARB Reporting Station
Overcast Overcast  
Wind Chill: 38°   Ceiling: 2300
Heat Index: 44°   Visibility: 10mi
Dew Point: 34°   Wind: 12mph
Humidity: 68%   Direction: 20°NNE
Pressure: 30.21"   Gusts: NA
Location:  42.28°N, 83.75°W
Report Text: KARB 220153Z AUTO 02010KT 10SM OVC023 07/01 A3021 RMK AO2 SLP233 T00670011
Loading
Personal Weather Stations






























Interactive Weather Map New forecast layout! Learn more

10-Day Weather Forecast

Advertisements
Track Severe Weather on mobile